Time;durP1;ratioP1;P1;durP2;ratioP2;P2;SDS_P1;SDS_P2;PMS_P1;PMS_P2;Temp;Humidity;BMP_temperature;BMP_pressure;BME280_temperature;BME280_humidity;BME280_pressure;Samples;Min_cycle;Max_cycle;Signal;HPM_P1;HPM_P2
2022/01/25 00:25:21;;;;;;;19.00;9.77;;;;;1.60;97752.00;;;;8260965;28;20227;-73
2022/01/25 00:34:22;;;;;;;20.53;10.13;;;;;1.70;97747.00;;;;8330574;28;20218;-73
2022/01/25 00:38:26;;;;;;;18.70;9.83;;;;;1.70;97745.00;;;;8330248;28;20222;-74
2022/01/25 00:42:59;;;;;;;16.57;9.13;;;;;1.80;97745.00;;;;8330315;28;20223;-73
2022/01/25 00:47:05;;;;;;;23.13;10.27;;;;;1.90;97737.00;;;;8330289;28;20276;-74
2022/01/25 00:51:20;;;;;;;18.30;9.20;;;;;1.90;97736.00;;;;8329378;28;20278;-73
2022/01/25 00:55:24;;;;;;;21.97;9.43;;;;;1.90;97733.00;;;;8330317;28;20219;-72
2022/01/25 01:00:01;;;;;;;21.70;10.03;;;;;1.90;97729.00;;;;8328938;28;20235;-73
2022/01/25 01:04:04;;;;;;;17.47;9.37;;;;;1.90;97735.00;;;;8328323;28;20227;-73
2022/01/25 01:08:07;;;;;;;20.33;9.63;;;;;2.00;97724.00;;;;8329725;28;20669;-73
2022/01/25 01:12:19;;;;;;;18.87;9.63;;;;;1.90;97721.00;;;;8328946;28;20637;-73
2022/01/25 01:30:58;;;;;;;20.50;9.10;;;;;1.90;97718.00;;;;8328440;28;20217;-73
2022/01/25 01:44:25;;;;;;;18.77;9.80;;;;;1.80;97704.00;;;;8303064;28;20289;-73
2022/01/25 01:48:33;;;;;;;19.47;8.93;;;;;1.80;97708.00;;;;8327962;28;20731;-74
2022/01/25 01:53:05;;;;;;;20.97;9.63;;;;;1.60;97704.00;;;;8328959;28;20223;-74
2022/01/25 01:57:09;;;;;;;16.33;8.33;;;;;1.50;97701.00;;;;8327323;28;20215;-74
2022/01/25 02:01:44;;;;;;;18.20;8.67;;;;;1.50;97700.00;;;;8327701;28;20232;-74
2022/01/25 02:06:19;;;;;;;19.10;9.80;;;;;1.50;97699.00;;;;8327909;28;20701;-74
2022/01/25 02:10:22;;;;;;;17.53;8.57;;;;;1.40;97699.00;;;;8327226;28;20660;-74
2022/01/25 02:14:25;;;;;;;18.13;9.10;;;;;1.40;97687.00;;;;8328381;28;20234;-73
2022/01/25 02:23:18;;;;;;;20.70;8.53;;;;;0.90;97688.00;;;;8327592;28;20223;-73
2022/01/25 02:27:21;;;;;;;16.97;8.70;;;;;0.90;97681.00;;;;8328160;28;20222;-73
2022/01/25 02:31:58;;;;;;;21.97;8.90;;;;;0.70;97677.00;;;;8330196;28;20243;-73
2022/01/25 02:36:34;;;;;;;19.60;9.03;;;;;0.60;97666.00;;;;8333684;28;20221;-73
2022/01/25 02:40:39;;;;;;;17.97;8.27;;;;;0.50;97673.00;;;;8333889;28;20651;-73
2022/01/25 02:44:43;;;;;;;22.03;8.57;;;;;0.50;97667.00;;;;8333746;28;20256;-73
2022/01/25 02:49:17;;;;;;;16.97;8.23;;;;;0.30;97661.00;;;;8332878;28;20332;-72
2022/01/25 02:53:20;;;;;;;20.13;8.70;;;;;0.20;97664.00;;;;8334139;28;20623;-72
2022/01/25 02:57:24;;;;;;;16.33;8.07;;;;;0.10;97659.00;;;;8333200;28;20225;-72
2022/01/25 03:01:28;;;;;;;19.37;8.13;;;;;0.10;97659.00;;;;8348360;23;20562;-72
2022/01/25 03:05:32;;;;;;;19.60;8.60;;;;;0.00;97660.00;;;;8316071;28;20229;-71
2022/01/25 03:09:36;;;;;;;19.73;8.67;;;;;-0.20;97641.00;;;;8301961;28;20269;-70
2022/01/25 03:13:50;;;;;;;21.50;9.20;;;;;-0.30;97653.00;;;;8319606;28;20293;-70
2022/01/25 03:17:56;;;;;;;19.83;9.33;;;;;-0.40;97645.00;;;;8316384;28;20221;-69
2022/01/25 03:22:04;;;;;;;18.60;9.03;;;;;-0.50;97638.00;;;;8316544;28;20241;-70
2022/01/25 03:26:08;;;;;;;18.07;8.87;;;;;-0.50;97638.00;;;;8315191;28;20319;-69
2022/01/25 03:30:12;;;;;;;20.10;8.83;;;;;-0.60;97637.00;;;;8318759;28;20710;-69
2022/01/25 03:34:16;;;;;;;17.63;9.13;;;;;-0.70;97635.00;;;;8317956;28;20230;-69
2022/01/25 03:38:19;;;;;;;19.70;8.93;;;;;-0.80;97640.00;;;;8317693;28;20229;-69
2022/01/25 03:42:23;;;;;;;16.23;8.30;;;;;-1.00;97641.00;;;;8321031;28;20229;-69
2022/01/25 03:46:36;;;;;;;19.40;8.83;;;;;-1.00;97646.00;;;;8318085;28;20299;-69
2022/01/25 03:50:39;;;;;;;20.07;9.03;;;;;-1.00;97639.00;;;;8307753;28;20237;-69
2022/01/25 03:54:42;;;;;;;19.20;9.17;;;;;-0.90;97638.00;;;;8317133;28;20233;-68
2022/01/25 03:58:45;;;;;;;18.27;8.87;;;;;-0.90;97636.00;;;;8318206;28;20354;-68
2022/01/25 04:02:54;;;;;;;17.33;8.50;;;;;-1.00;97630.00;;;;8311431;28;20283;-68
2022/01/25 04:06:58;;;;;;;18.30;8.47;;;;;-1.00;97633.00;;;;8309212;28;20248;-68
2022/01/25 04:11:01;;;;;;;18.07;8.50;;;;;-1.10;97631.00;;;;8312711;28;20944;-67
2022/01/25 04:15:05;;;;;;;21.20;8.53;;;;;-1.20;97629.00;;;;8307182;28;20260;-68
2022/01/25 04:19:12;;;;;;;22.60;9.63;;;;;-1.20;97614.00;;;;8294340;28;20233;-68
2022/01/25 04:27:36;;;;;;;24.43;9.70;;;;;-1.30;97621.00;;;;8316684;28;21010;-68
2022/01/25 04:31:39;;;;;;;21.10;10.10;;;;;-1.30;97617.00;;;;8315240;28;20287;-69
2022/01/25 04:35:56;;;;;;;19.57;8.83;;;;;-1.30;97624.00;;;;8317094;28;20307;-69
2022/01/25 04:49:03;;;;;;;21.27;9.60;;;;;-1.50;97617.00;;;;8312024;28;20264;-69
2022/01/25 04:53:14;;;;;;;21.73;9.53;;;;;-1.50;97616.00;;;;8289392;28;21116;-69
2022/01/25 04:57:28;;;;;;;19.40;8.83;;;;;-1.50;97623.00;;;;8309735;28;20225;-69
2022/01/25 05:01:32;;;;;;;20.47;9.03;;;;;-1.60;97617.00;;;;8290934;28;20238;-71
2022/01/25 05:05:39;;;;;;;22.23;10.20;;;;;-1.70;97622.00;;;;8292550;28;20233;-70
2022/01/25 05:09:46;;;;;;;20.33;9.63;;;;;-1.70;97618.00;;;;8308480;28;20229;-69
2022/01/25 05:13:53;;;;;;;22.30;9.63;;;;;-1.60;97613.00;;;;8301703;28;21144;-69
2022/01/25 05:18:08;;;;;;;19.03;9.37;;;;;-1.60;97607.00;;;;8281636;28;20757;-69
2022/01/25 05:22:21;;;;;;;23.53;10.13;;;;;-1.70;97609.00;;;;8294047;28;20249;-69
2022/01/25 05:26:26;;;;;;;22.93;9.67;;;;;-1.60;97608.00;;;;8286551;28;20252;-70
2022/01/25 05:30:33;;;;;;;18.93;9.47;;;;;-1.60;97598.00;;;;8309431;28;20236;-70
2022/01/25 05:34:36;;;;;;;23.27;10.00;;;;;-1.60;97605.00;;;;8312339;28;20294;-68
2022/01/25 05:38:39;;;;;;;22.00;9.33;;;;;-1.60;97606.00;;;;8314930;28;20572;-70
2022/01/25 05:42:50;;;;;;;17.83;8.50;;;;;-1.60;97603.00;;;;8310244;28;20242;-70
2022/01/25 05:47:05;;;;;;;17.67;8.43;;;;;-1.60;97598.00;;;;8289751;28;20694;-70
2022/01/25 05:51:09;;;;;;;23.67;9.43;;;;;-1.60;97606.00;;;;8304576;28;20259;-69
2022/01/25 05:55:12;;;;;;;48.77;12.73;;;;;-1.60;97608.00;;;;8310412;28;20220;-70
2022/01/25 05:59:16;;;;;;;36.13;11.27;;;;;-1.70;97614.00;;;;8294301;28;20244;-71
2022/01/25 06:03:19;;;;;;;24.70;10.40;;;;;-1.80;97613.00;;;;8305933;28;20728;-71
2022/01/25 06:07:22;;;;;;;37.10;11.03;;;;;-1.80;97613.00;;;;8305912;28;20961;-70
2022/01/25 06:11:25;;;;;;;66.37;14.07;;;;;-1.80;97610.00;;;;8312797;28;20279;-70
2022/01/25 06:15:30;;;;;;;39.87;14.80;;;;;-1.80;97614.00;;;;8313431;28;20642;-71
2022/01/25 06:19:33;;;;;;;38.73;12.27;;;;;-1.60;97620.00;;;;8309817;28;20225;-70
2022/01/25 06:23:36;;;;;;;25.83;11.30;;;;;-1.50;97630.00;;;;8302797;28;20279;-71
2022/01/25 06:27:40;;;;;;;42.57;15.57;;;;;-1.30;97625.00;;;;8310126;28;20220;-71
2022/01/25 06:31:46;;;;;;;27.70;11.33;;;;;-1.00;97639.00;;;;8311618;28;20629;-71
2022/01/25 06:35:50;;;;;;;45.27;17.20;;;;;-0.90;97632.00;;;;8309460;28;20229;-74
2022/01/25 06:39:54;;;;;;;69.33;27.33;;;;;-0.70;97625.00;;;;8310073;28;20224;-74
2022/01/25 06:43:57;;;;;;;220.67;79.73;;;;;-0.50;97628.00;;;;8313985;28;20264;-76
2022/01/25 06:48:02;;;;;;;35.80;17.83;;;;;-0.40;97627.00;;;;8311257;28;20229;-73
2022/01/25 06:52:05;;;;;;;32.57;12.73;;;;;-0.20;97632.00;;;;8309339;28;20660;-73
2022/01/25 06:56:09;;;;;;;35.43;13.60;;;;;-0.10;97640.00;;;;8306050;28;20231;-74
2022/01/25 07:00:16;;;;;;;36.93;14.37;;;;;0.00;97639.00;;;;8303619;28;20225;-70
2022/01/25 07:04:20;;;;;;;31.00;13.70;;;;;0.10;97642.00;;;;8297592;28;20297;-71
2022/01/25 07:08:23;;;;;;;24.47;10.73;;;;;0.20;97647.00;;;;8300039;28;20234;-71
2022/01/25 07:12:28;;;;;;;28.43;11.00;;;;;0.30;97654.00;;;;8303019;28;20233;-72
2022/01/25 07:16:31;;;;;;;25.67;11.03;;;;;0.40;97650.00;;;;8286407;28;20241;-72
2022/01/25 07:20:36;;;;;;;24.40;10.43;;;;;0.40;97646.00;;;;8297277;28;20314;-74
2022/01/25 07:24:39;;;;;;;25.33;9.53;;;;;0.50;97654.00;;;;8316699;28;20242;-73
2022/01/25 07:28:43;;;;;;;28.20;9.57;;;;;0.50;97644.00;;;;8315661;28;20909;-72
2022/01/25 07:32:46;;;;;;;34.07;10.50;;;;;0.50;97653.00;;;;8315304;28;20233;-73
2022/01/25 07:36:50;;;;;;;32.73;11.83;;;;;0.60;97647.00;;;;8313476;28;20645;-73
2022/01/25 07:40:56;;;;;;;32.27;17.60;;;;;0.70;97634.00;;;;8315008;28;20231;-74
2022/01/25 07:44:59;;;;;;;29.23;9.90;;;;;0.70;97643.00;;;;8317712;28;20233;-73
2022/01/25 07:49:10;;;;;;;30.47;10.73;;;;;0.80;97644.00;;;;8313927;28;20227;-73
2022/01/25 07:53:14;;;;;;;32.60;9.43;;;;;0.90;97650.00;;;;8317440;28;20998;-73
2022/01/25 07:57:17;;;;;;;30.13;10.27;;;;;1.00;97650.00;;;;8310245;28;20226;-75
2022/01/25 08:01:21;;;;;;;31.20;10.67;;;;;1.00;97659.00;;;;8317351;28;20288;-72
2022/01/25 08:05:26;;;;;;;34.60;10.83;;;;;1.20;97661.00;;;;8304704;28;20223;-72
2022/01/25 08:09:45;;;;;;;29.53;10.83;;;;;1.30;97653.00;;;;8309743;28;20227;-72
2022/01/25 08:14:16;;;;;;;45.37;16.87;;;;;1.40;97655.00;;;;8292216;28;20235;-71
2022/01/25 08:18:28;;;;;;;517.73;281.47;;;;;1.50;97649.00;;;;8301771;28;20273;-71
2022/01/25 08:22:40;;;;;;;96.97;49.80;;;;;1.60;97651.00;;;;8308182;28;20574;-71
2022/01/25 08:26:49;;;;;;;28.63;11.20;;;;;1.70;97651.00;;;;8312635;28;20232;-71
2022/01/25 08:31:08;;;;;;;28.97;12.73;;;;;1.80;97648.00;;;;8301846;28;20248;-71
2022/01/25 08:35:24;;;;;;;31.07;11.30;;;;;1.90;97645.00;;;;8310680;28;20680;-71
2022/01/25 08:39:42;;;;;;;29.17;10.73;;;;;2.10;97644.00;;;;8182663;28;21527;-71
2022/01/25 08:43:50;;;;;;;27.97;11.27;;;;;2.10;97653.00;;;;8186746;28;20262;-71
2022/01/25 08:48:07;;;;;;;27.63;10.67;;;;;2.20;97649.00;;;;8187028;28;20729;-69
2022/01/25 08:52:28;;;;;;;37.37;11.83;;;;;2.30;97660.00;;;;8311707;28;20301;-70
2022/01/25 08:57:04;;;;;;;47.60;13.70;;;;;2.40;97660.00;;;;8303179;28;20681;-69
2022/01/25 09:01:26;;;;;;;31.97;11.57;;;;;2.40;97668.00;;;;8273452;28;20239;-69
2022/01/25 09:05:30;;;;;;;43.67;13.33;;;;;2.50;97665.00;;;;8314098;28;20247;-69
2022/01/25 09:09:33;;;;;;;45.60;13.93;;;;;2.60;97666.00;;;;8314840;28;20248;-69
2022/01/25 09:13:36;;;;;;;34.70;11.73;;;;;2.60;97665.00;;;;8313570;28;20235;-69
2022/01/25 09:17:40;;;;;;;49.90;13.00;;;;;2.60;97666.00;;;;8308688;28;20371;-68
2022/01/25 09:21:43;;;;;;;53.43;12.23;;;;;2.70;97674.00;;;;8297760;28;20222;-68
2022/01/25 09:25:48;;;;;;;46.93;12.50;;;;;2.80;97676.00;;;;8309328;28;20713;-68
2022/01/25 09:29:51;;;;;;;50.07;13.63;;;;;3.00;97670.00;;;;8313545;28;21142;-68
2022/01/25 09:33:56;;;;;;;72.10;15.33;;;;;2.90;97669.00;;;;8312486;28;20240;-67
2022/01/25 09:37:59;;;;;;;61.50;13.80;;;;;2.90;97668.00;;;;8313548;28;20685;-67
2022/01/25 09:42:03;;;;;;;61.30;15.00;;;;;3.00;97675.00;;;;8292518;28;20284;-69
2022/01/25 09:46:06;;;;;;;79.17;14.53;;;;;2.90;97672.00;;;;8288376;28;20233;-68
2022/01/25 09:50:11;;;;;;;52.50;11.30;;;;;2.90;97668.00;;;;8282217;28;20343;-68
2022/01/25 09:54:14;;;;;;;38.13;11.57;;;;;2.80;97675.00;;;;8280237;28;20248;-67
2022/01/25 09:58:18;;;;;;;67.17;12.60;;;;;2.90;97673.00;;;;8285648;28;20224;-67
2022/01/25 10:02:36;;;;;;;47.93;11.43;;;;;2.90;97679.00;;;;8283068;28;20278;-67
2022/01/25 10:06:41;;;;;;;47.23;10.90;;;;;3.00;97672.00;;;;8304857;28;20719;-67
2022/01/25 10:10:46;;;;;;;64.10;11.97;;;;;2.90;97674.00;;;;8277663;28;20235;-67
2022/01/25 10:15:08;;;;;;;38.87;11.33;;;;;2.90;97680.00;;;;8285673;28;20234;-68
2022/01/25 10:19:30;;;;;;;29.90;10.17;;;;;2.90;97678.00;;;;8288247;28;20642;-68
2022/01/25 10:23:35;;;;;;;33.97;10.10;;;;;3.00;97674.00;;;;8309787;28;20292;-68
2022/01/25 10:28:03;;;;;;;30.30;10.33;;;;;2.90;97679.00;;;;8314476;28;20290;-67
2022/01/25 10:32:10;;;;;;;46.07;16.70;;;;;2.90;97677.00;;;;8294847;28;20267;-68
2022/01/25 10:36:17;;;;;;;38.00;13.50;;;;;2.80;97673.00;;;;8307385;28;20286;-68
2022/01/25 10:44:55;;;;;;;41.70;10.67;;;;;2.90;97679.00;;;;8388530;27;21098;-66
2022/01/25 10:49:00;;;;;;;32.27;11.07;;;;;2.90;97673.00;;;;8339838;28;20222;-67
2022/01/25 10:53:06;;;;;;;31.30;9.87;;;;;2.80;97668.00;;;;8329526;28;20231;-67
2022/01/25 10:57:18;;;;;;;35.77;10.47;;;;;2.80;97657.00;;;;8311676;28;20289;-66
2022/01/25 11:01:32;;;;;;;54.83;12.73;;;;;2.90;97658.00;;;;8316157;28;20231;-67
2022/01/25 11:05:38;;;;;;;32.20;10.77;;;;;2.80;97663.00;;;;8311625;28;20259;-67
2022/01/25 11:09:46;;;;;;;31.13;10.50;;;;;2.70;97667.00;;;;8310574;28;20227;-67
2022/01/25 11:13:50;;;;;;;39.50;10.60;;;;;2.70;97664.00;;;;8312508;28;20234;-66
2022/01/25 11:17:54;;;;;;;56.50;11.70;;;;;2.70;97660.00;;;;8308960;28;20284;-67
2022/01/25 11:21:59;;;;;;;32.67;11.67;;;;;2.80;97646.00;;;;8316030;28;20239;-67
2022/01/25 11:26:03;;;;;;;30.53;10.70;;;;;2.70;97650.00;;;;8305824;28;20745;-68
2022/01/25 11:30:10;;;;;;;43.93;10.87;;;;;2.80;97648.00;;;;8302924;28;20240;-67
2022/01/25 11:34:16;;;;;;;30.07;10.80;;;;;2.90;97637.00;;;;8304646;28;21181;-67
2022/01/25 11:38:32;;;;;;;35.53;11.10;;;;;2.90;97643.00;;;;8316781;28;20264;-67
2022/01/25 11:42:39;;;;;;;32.37;10.27;;;;;3.00;97642.00;;;;8306057;28;20665;-67
2022/01/25 11:46:47;;;;;;;29.43;10.63;;;;;2.80;97644.00;;;;8310073;28;20256;-66
2022/01/25 11:50:51;;;;;;;28.50;10.60;;;;;2.80;97636.00;;;;8305850;28;20310;-67
2022/01/25 11:55:15;;;;;;;32.00;9.30;;;;;2.80;97620.00;;;;8292495;28;20630;-67
2022/01/25 11:59:18;;;;;;;34.27;9.53;;;;;2.80;97628.00;;;;8295448;28;20710;-67
2022/01/25 12:03:25;;;;;;;28.47;9.97;;;;;2.80;97623.00;;;;8284406;28;20297;-66
2022/01/25 12:07:36;;;;;;;34.60;10.93;;;;;2.80;97620.00;;;;8284595;28;20227;-66
2022/01/25 12:11:44;;;;;;;34.93;10.17;;;;;2.90;97613.00;;;;8285177;28;20274;-66
2022/01/25 12:16:26;;;;;;;24.87;9.20;;;;;2.90;97618.00;;;;8287082;28;20226;-66
2022/01/25 12:20:30;;;;;;;31.70;12.30;;;;;2.90;97605.00;;;;8279849;28;20229;-66
2022/01/25 12:24:39;;;;;;;24.57;9.63;;;;;3.00;97611.00;;;;8287169;28;20618;-66
2022/01/25 12:28:45;;;;;;;28.63;10.37;;;;;3.20;97612.00;;;;8283485;28;20259;-66
2022/01/25 12:33:00;;;;;;;34.83;11.57;;;;;3.20;97600.00;;;;8284214;28;20283;-66
2022/01/25 12:37:03;;;;;;;32.10;11.90;;;;;3.10;97592.00;;;;8288743;28;20275;-66
2022/01/25 12:41:08;;;;;;;29.77;10.57;;;;;3.10;97591.00;;;;8285241;28;20238;-66
2022/01/25 12:45:17;;;;;;;32.47;11.83;;;;;3.10;97601.00;;;;8283970;28;20334;-66
2022/01/25 12:49:26;;;;;;;38.07;11.63;;;;;3.10;97600.00;;;;8284581;28;20233;-66
2022/01/25 12:53:32;;;;;;;25.77;9.70;;;;;3.10;97586.00;;;;8286611;28;20225;-66
2022/01/25 12:57:35;;;;;;;22.23;9.27;;;;;3.10;97607.00;;;;8281905;28;20233;-66
2022/01/25 13:01:40;;;;;;;24.73;9.90;;;;;3.10;97594.00;;;;8285871;28;20234;-65
2022/01/25 13:05:49;;;;;;;28.03;10.67;;;;;3.10;97589.00;;;;8281131;28;20218;-66
2022/01/25 13:09:54;;;;;;;39.43;11.33;;;;;3.10;97575.00;;;;8289105;28;20227;-65
2022/01/25 13:14:16;;;;;;;29.80;9.80;;;;;3.10;97588.00;;;;8281289;28;20314;-65
2022/01/25 13:18:19;;;;;;;27.10;10.53;;;;;3.10;97588.00;;;;8285220;28;20228;-65
2022/01/25 13:22:28;;;;;;;31.53;10.90;;;;;3.20;97579.00;;;;8303940;28;20568;-65
2022/01/25 13:26:38;;;;;;;29.50;11.40;;;;;3.20;97567.00;;;;8315001;28;20234;-65
2022/01/25 13:30:42;;;;;;;25.00;9.77;;;;;3.30;97578.00;;;;8310301;28;20258;-66
2022/01/25 13:35:00;;;;;;;31.77;11.80;;;;;3.20;97569.00;;;;8310788;28;20242;-66
2022/01/25 13:39:12;;;;;;;36.23;13.17;;;;;3.20;97565.00;;;;8307054;28;20310;-66
2022/01/25 13:47:56;;;;;;;30.77;11.57;;;;;2.90;97558.00;;;;8310346;28;20316;-67
2022/01/25 13:51:59;;;;;;;33.90;12.57;;;;;2.80;97559.00;;;;8314939;28;20284;-67
2022/01/25 13:56:05;;;;;;;33.77;10.90;;;;;2.80;97551.00;;;;8313719;28;20323;-67
2022/01/25 14:00:11;;;;;;;36.10;12.33;;;;;2.90;97550.00;;;;8309797;28;20307;-67
2022/01/25 14:04:18;;;;;;;29.17;10.93;;;;;2.90;97554.00;;;;8313548;28;20261;-66
2022/01/25 14:08:33;;;;;;;34.37;11.70;;;;;2.80;97558.00;;;;8317323;28;20719;-66
2022/01/25 14:21:54;;;;;;;39.20;16.83;;;;;2.60;97561.00;;;;8306719;28;20341;-65
2022/01/25 14:26:02;;;;;;;43.67;13.63;;;;;2.70;97562.00;;;;8318277;28;20642;-65
2022/01/25 14:30:07;;;;;;;44.53;14.17;;;;;2.70;97561.00;;;;8314187;28;20231;-66
2022/01/25 14:34:12;;;;;;;42.27;13.67;;;;;2.50;97552.00;;;;8311228;28;21007;-65
2022/01/25 14:38:20;;;;;;;41.83;13.90;;;;;2.60;97553.00;;;;8304120;28;20292;-65
2022/01/25 14:42:23;;;;;;;44.87;15.57;;;;;2.70;97559.00;;;;8326013;28;20299;-66
2022/01/25 14:46:30;;;;;;;29.57;11.60;;;;;2.70;97553.00;;;;8316146;28;20226;-66
2022/01/25 14:50:34;;;;;;;40.87;13.07;;;;;2.70;97555.00;;;;8313549;28;20711;-66
2022/01/25 14:54:39;;;;;;;104.73;16.87;;;;;2.60;97551.00;;;;8312765;28;20234;-66
2022/01/25 15:03:08;;;;;;;41.57;13.37;;;;;2.60;97541.00;;;;8314804;28;20288;-65
2022/01/25 15:07:12;;;;;;;40.90;13.23;;;;;2.70;97535.00;;;;8312921;28;20230;-66
2022/01/25 15:11:15;;;;;;;41.30;14.60;;;;;2.70;97538.00;;;;8313340;28;20250;-67
2022/01/25 15:15:25;;;;;;;40.57;13.60;;;;;2.70;97538.00;;;;8314932;28;20235;-66
2022/01/25 15:19:29;;;;;;;41.23;13.83;;;;;2.60;97541.00;;;;8314888;28;20284;-66
2022/01/25 15:23:34;;;;;;;48.03;15.47;;;;;2.50;97545.00;;;;8305332;28;20277;-67
2022/01/25 15:27:37;;;;;;;53.13;16.13;;;;;2.50;97538.00;;;;8312055;28;20240;-69
2022/01/25 15:31:40;;;;;;;154.00;50.33;;;;;2.40;97552.00;;;;8318128;28;20227;-69
2022/01/25 15:35:45;;;;;;;63.57;21.80;;;;;2.40;97547.00;;;;8316677;28;20233;-68
2022/01/25 15:39:48;;;;;;;83.33;42.30;;;;;2.40;97550.00;;;;8310455;28;20305;-68
2022/01/25 15:43:53;;;;;;;63.67;31.90;;;;;2.30;97555.00;;;;8307567;28;20250;-68
2022/01/25 15:47:57;;;;;;;49.50;15.23;;;;;2.20;97559.00;;;;8319853;28;20350;-68
2022/01/25 15:52:01;;;;;;;42.23;13.80;;;;;2.20;97559.00;;;;8320550;28;20221;-68
2022/01/25 15:56:05;;;;;;;43.83;17.23;;;;;2.20;97555.00;;;;8313113;28;20231;-69
2022/01/25 16:00:09;;;;;;;162.20;58.60;;;;;2.10;97551.00;;;;8315575;28;20274;-68
2022/01/25 16:04:12;;;;;;;54.47;18.60;;;;;2.10;97548.00;;;;8313495;28;20243;-67
2022/01/25 16:08:17;;;;;;;65.93;22.57;;;;;2.10;97547.00;;;;8317967;28;20260;-68
2022/01/25 16:12:20;;;;;;;48.17;15.50;;;;;2.10;97542.00;;;;8317233;28;20224;-67
2022/01/25 16:16:23;;;;;;;50.77;14.83;;;;;2.00;97544.00;;;;8316892;28;20227;-67
2022/01/25 16:20:27;;;;;;;59.87;15.63;;;;;2.10;97533.00;;;;8318257;28;20759;-67
2022/01/25 16:24:34;;;;;;;45.60;14.53;;;;;2.10;97537.00;;;;8321548;28;20230;-68
2022/01/25 16:28:37;;;;;;;57.63;14.90;;;;;2.10;97537.00;;;;8325625;28;20231;-71
2022/01/25 16:32:43;;;;;;;61.30;15.50;;;;;2.10;97549.00;;;;8325661;28;20267;-68
2022/01/25 16:36:46;;;;;;;55.53;14.37;;;;;2.10;97547.00;;;;8320965;28;20252;-69
2022/01/25 16:40:51;;;;;;;59.17;15.60;;;;;2.10;97547.00;;;;8314507;28;20227;-68
2022/01/25 16:44:57;;;;;;;55.70;14.57;;;;;2.10;97546.00;;;;8315453;28;20617;-69
2022/01/25 16:49:01;;;;;;;60.67;17.23;;;;;2.10;97554.00;;;;8315663;28;20227;-69
2022/01/25 16:53:04;;;;;;;64.53;16.23;;;;;2.20;97568.00;;;;8302198;28;20226;-68
2022/01/25 16:57:08;;;;;;;61.63;17.83;;;;;2.20;97571.00;;;;8307810;28;20287;-68
2022/01/25 17:01:12;;;;;;;58.43;15.83;;;;;2.20;97575.00;;;;8309602;28;20241;-68
2022/01/25 17:05:16;;;;;;;51.67;15.50;;;;;2.10;97569.00;;;;8308989;28;20747;-67
2022/01/25 17:09:19;;;;;;;56.87;15.03;;;;;2.00;97570.00;;;;8309635;28;20426;-68
2022/01/25 17:13:23;;;;;;;59.33;15.30;;;;;2.10;97570.00;;;;8308302;28;20227;-67
2022/01/25 17:17:26;;;;;;;54.37;15.33;;;;;2.10;97565.00;;;;8308382;28;20763;-67
2022/01/25 17:21:29;;;;;;;61.67;14.83;;;;;2.10;97569.00;;;;8311170;28;20704;-69
2022/01/25 17:25:33;;;;;;;68.03;16.20;;;;;2.10;97578.00;;;;8309507;28;20229;-71
2022/01/25 17:29:38;;;;;;;73.87;16.73;;;;;2.20;97574.00;;;;8315793;28;20218;-70
2022/01/25 17:33:41;;;;;;;78.17;16.83;;;;;2.20;97574.00;;;;8299955;28;20241;-70
2022/01/25 17:37:44;;;;;;;68.33;15.13;;;;;2.20;97573.00;;;;8295139;28;20244;-71
2022/01/25 17:41:47;;;;;;;66.30;15.57;;;;;2.20;97568.00;;;;8306901;28;20261;-69
2022/01/25 17:45:53;;;;;;;73.97;15.80;;;;;2.20;97577.00;;;;8303045;28;20746;-69
2022/01/25 17:49:56;;;;;;;58.70;16.00;;;;;2.20;97583.00;;;;8304855;28;20235;-70
2022/01/25 17:53:59;;;;;;;74.03;16.00;;;;;2.10;97584.00;;;;8293249;28;20769;-69
2022/01/25 17:58:02;;;;;;;66.70;16.83;;;;;2.10;97598.00;;;;8307147;28;20234;-70
2022/01/25 18:02:07;;;;;;;64.13;17.77;;;;;2.00;97601.00;;;;8304435;28;20248;-69
2022/01/25 18:06:10;;;;;;;54.53;15.50;;;;;1.90;97594.00;;;;8303113;28;20281;-69
2022/01/25 18:10:13;;;;;;;55.70;14.27;;;;;1.90;97602.00;;;;8302998;28;20252;-70
2022/01/25 18:14:17;;;;;;;60.50;16.23;;;;;1.90;97611.00;;;;8301869;28;20691;-69
2022/01/25 18:18:21;;;;;;;56.87;15.50;;;;;1.80;97609.00;;;;8308066;28;20226;-69
2022/01/25 18:22:31;;;;;;;55.27;13.87;;;;;1.70;97613.00;;;;8290135;28;20578;-69
2022/01/25 18:26:44;;;;;;;55.40;14.20;;;;;1.80;97606.00;;;;8307363;28;20253;-69
2022/01/25 18:30:51;;;;;;;65.40;15.67;;;;;1.70;97612.00;;;;8306691;28;20221;-69
2022/01/25 18:34:56;;;;;;;56.80;14.77;;;;;1.70;97610.00;;;;8292876;28;20749;-69
2022/01/25 18:39:01;;;;;;;50.30;14.40;;;;;1.70;97617.00;;;;8308812;28;20299;-69
2022/01/25 18:43:05;;;;;;;45.60;13.23;;;;;1.80;97616.00;;;;8301787;28;20629;-69
2022/01/25 18:47:08;;;;;;;59.83;13.83;;;;;1.80;97613.00;;;;8305523;28;20227;-69
2022/01/25 18:51:13;;;;;;;52.80;13.67;;;;;1.80;97613.00;;;;8299492;28;20258;-69
2022/01/25 18:55:16;;;;;;;50.00;12.93;;;;;1.80;97627.00;;;;8309389;28;20226;-69
2022/01/25 18:59:19;;;;;;;48.30;13.07;;;;;1.70;97616.00;;;;8298367;28;20227;-69
2022/01/25 19:08:42;;;;;;;55.97;12.53;;;;;1.70;97606.00;;;;8301080;28;20226;-69
2022/01/25 19:13:16;;;;;;;46.33;12.20;;;;;1.70;97611.00;;;;8301074;28;20222;-69
2022/01/25 19:17:19;;;;;;;48.03;12.53;;;;;1.80;97609.00;;;;8301237;28;20601;-69
2022/01/25 19:21:55;;;;;;;40.90;10.93;;;;;1.70;97617.00;;;;8300803;28;20653;-70
2022/01/25 19:26:27;;;;;;;55.00;13.30;;;;;1.70;97609.00;;;;8300970;28;20235;-69
2022/01/25 19:31:07;;;;;;;51.70;12.87;;;;;1.70;97602.00;;;;8299463;28;20220;-70
2022/01/25 19:35:47;;;;;;;46.93;13.10;;;;;1.70;97613.00;;;;8288035;28;20610;-71
2022/01/25 19:40:24;;;;;;;61.17;15.37;;;;;1.60;97605.00;;;;8300381;28;20730;-69
2022/01/25 19:45:01;;;;;;;60.83;14.90;;;;;1.50;97601.00;;;;8300143;28;20280;-70
2022/01/25 19:49:39;;;;;;;61.30;15.87;;;;;1.60;97593.00;;;;8300626;28;20635;-69
2022/01/25 19:54:18;;;;;;;64.97;15.20;;;;;1.70;97600.00;;;;8299774;28;20220;-70
2022/01/25 19:58:21;;;;;;;59.33;13.93;;;;;1.80;97603.00;;;;8300815;28;20266;-69
2022/01/25 20:02:27;;;;;;;48.03;12.83;;;;;1.80;97606.00;;;;8299752;28;20222;-69
2022/01/25 20:06:31;;;;;;;57.17;13.73;;;;;1.90;97603.00;;;;8297618;28;20306;-69
2022/01/25 20:11:07;;;;;;;55.27;13.43;;;;;1.90;97595.00;;;;8299976;28;20222;-69
2022/01/25 20:15:11;;;;;;;47.33;13.40;;;;;2.00;97614.00;;;;8299676;28;20229;-69
2022/01/25 20:19:45;;;;;;;47.00;13.97;;;;;2.00;97613.00;;;;8297709;28;20231;-70
2022/01/25 20:24:26;;;;;;;59.53;14.80;;;;;1.90;97603.00;;;;8299844;28;20224;-69
2022/01/25 20:29:08;;;;;;;65.23;14.10;;;;;2.00;97599.00;;;;8299179;28;20612;-70
2022/01/25 20:33:37;;;;;;;40.50;12.60;;;;;1.90;97606.00;;;;8298734;28;20232;-69
2022/01/25 20:37:40;;;;;;;43.80;12.50;;;;;1.90;97602.00;;;;8298831;28;20233;-70
2022/01/25 20:41:45;;;;;;;49.20;13.27;;;;;1.90;97606.00;;;;8299361;28;20246;-70
2022/01/25 20:45:51;;;;;;;43.00;12.57;;;;;1.80;97608.00;;;;8298396;28;20223;-69
2022/01/25 20:50:25;;;;;;;42.97;14.10;;;;;1.70;97610.00;;;;8297302;28;20219;-70
2022/01/25 20:55:03;;;;;;;44.30;12.57;;;;;1.60;97613.00;;;;8298693;28;20637;-70
2022/01/25 20:59:42;;;;;;;37.50;12.67;;;;;1.60;97618.00;;;;8297686;28;20588;-70
2022/01/25 21:08:40;;;;;;;34.63;12.07;;;;;1.70;97613.00;;;;8298444;28;20293;-71
2022/01/25 21:12:44;;;;;;;33.70;11.13;;;;;1.70;97604.00;;;;8297636;28;20224;-71
2022/01/25 21:16:48;;;;;;;34.23;11.33;;;;;1.90;97598.00;;;;8297818;28;20231;-71
2022/01/25 21:21:22;;;;;;;39.40;12.10;;;;;1.90;97594.00;;;;8297799;28;20223;-70
2022/01/25 21:26:00;;;;;;;43.43;13.00;;;;;2.00;97588.00;;;;8296809;28;20309;-71
2022/01/25 21:30:36;;;;;;;47.20;13.47;;;;;2.00;97592.00;;;;8297032;28;20602;-70
2022/01/25 21:34:39;;;;;;;38.53;12.00;;;;;2.00;97596.00;;;;8297319;28;20226;-71
2022/01/25 21:38:42;;;;;;;35.57;11.50;;;;;2.00;97585.00;;;;8297268;28;20215;-71
2022/01/25 21:42:46;;;;;;;41.83;12.30;;;;;2.10;97586.00;;;;8296528;28;20598;-71
2022/01/25 21:46:49;;;;;;;45.13;12.63;;;;;2.10;97579.00;;;;8297420;28;20235;-71
2022/01/25 21:51:25;;;;;;;47.43;13.03;;;;;2.10;97576.00;;;;8297609;28;20312;-71
2022/01/25 21:55:30;;;;;;;47.93;12.50;;;;;2.20;97571.00;;;;8297499;28;20225;-73
2022/01/25 22:00:06;;;;;;;49.63;13.60;;;;;2.20;97564.00;;;;8296498;28;20218;-72
2022/01/25 22:04:13;;;;;;;42.43;11.90;;;;;2.30;97571.00;;;;8295564;28;20314;-71
2022/01/25 22:08:47;;;;;;;51.53;13.03;;;;;2.20;97575.00;;;;8296651;28;20284;-71
2022/01/25 22:12:53;;;;;;;43.47;12.87;;;;;2.20;97571.00;;;;8296503;28;20218;-72
2022/01/25 22:16:58;;;;;;;40.93;12.83;;;;;2.30;97566.00;;;;8296159;28;20245;-71